map of CIJ home
CIJ - Airport
Location
City:  Cobija, Nicolás Suárez, Pando, Bolivia
Name:Capitan Anibal Arab
ICAO:SLCO
IATA:CIJ

Details
Type:Airport (Aerodrome, Airfield)
Latitude:11°02'26"S (-11.040435)
Longitude:68°46'59"W (-68.782971)
Datum:WGS 1984
Elevation:892 ft (272 m)
Variation:8.93°W (WMM2015 magnetic declination)
-0.18° annual change
Runways:1
Longest:6562 × 98 ft (2000 × 30 m), paved

Time
Time Zone:UTC-4
Local Time:

Weather
METAR:SLCO 152200Z 24003KT 8000 VCSH FEW004 FEW020CB BKN080 24/23 Q1011
TAF:SLCO 152215Z 1600/1624 00000KT 9999 SCT005 BKN080 TX33/1620Z TN23 /1610Z
BECMG 1611/1613 30007KT SCT017 FEW020CB BKN070
TEMPO 1614/1618 8000 TSRA

Related Locations
Nearby:
Farthest:CXR: 12295 mi / 19786 km
Nha Trang (Cam Ranh) [Cam Ranh Intl], VN

Find:

   beyond  
but within

Other Information
Maps:
NOTAMs:
Links:
Sources:

  
  • flag of Bolivia
  • flag of Pando
  

Sectional Chart

Flight Planning
at skyvector.com

Satellite Image

Google Maps Satellite view

 

Copyright © 2004-2018 Karl L. Swartz. All rights reserved.
The Great Circle Mapper name and logo are trademarks of the Great Circle Mapper.
All other trademarks mentioned herein belong to their respective owners.
Please see credits for attibutions and further copyright information.

  Follow gcmap on Facebook Follow gcmap on Twitter Follow gcmap on Google+ GCmap on LinkedIn

hCard Microformat

Geo Microformat